Flight Briefing for CPX781

Departure Arrival
Taiwan Taoyuan International Airport (RCTP)
Click to view FAA NOTAMS
Incheon International Airport (RKSI)
Click to view FAA NOTAMS
Departure Time Arrival Time
N/A N/A
Aircraft Distance
B747-400BCF 788nm
Departure METAR Arrival METAR
RCTP 260930Z 09013KT 9999 FEW020 22/17 Q1018 NOSIG RMK A3006 RKSI 260930Z 34003KT CAVOK 10/01 Q1017 NOSIG
Suggested Route
PIANO1C PIANO L3 SALMI B576 SEL SEL1T


View recent IFR Routes data
Notes



Charts and Procedures

Charts for RCTP
No chart available
Charts for RKSI
No chart available

Windy.com Weather Map